Time;durP1;ratioP1;P1;durP2;ratioP2;P2;SDS_P1;SDS_P2;PMS_P1;PMS_P2;Temp;Humidity;BMP_temperature;BMP_pressure;BME280_temperature;BME280_humidity;BME280_pressure;Samples;Min_cycle;Max_cycle;Signal;HPM_P1;HPM_P2
2024/02/06 14:03:38;;;;;;;11.50;6.03;;;;;;;;;;5073174;27;20305;-77
2024/02/06 14:06:12;;;;;;;11.87;5.30;;;;;;;;;;5050194;28;20223;-78
2024/02/06 14:08:39;;;;;;;16.43;6.57;;;;;;;;;;5053458;28;20214;-77
2024/02/06 14:11:08;;;;;;;9.07;5.17;;;;;;;;;;5024053;28;20272;-78
2024/02/06 14:13:34;;;;;;;8.07;4.67;;;;;;;;;;5056504;28;20309;-77
2024/02/06 14:16:04;;;;;;;9.03;4.77;;;;;;;;;;5020281;28;20214;-77
2024/02/06 14:18:29;;;;;;;12.00;5.57;;;;;;;;;;5019465;28;20669;-78
2024/02/06 14:21:00;;;;;;;9.03;5.10;;;;;;;;;;5038705;28;20218;-79
2024/02/06 14:23:26;;;;;;;8.83;4.40;;;;;;;;;;5051397;28;20234;-76
2024/02/06 14:25:51;;;;;;;8.23;4.27;;;;;;;;;;5050546;28;20210;-77
2024/02/06 14:28:17;;;;;;;5.83;3.70;;;;;;;;;;5020582;28;20223;-77
2024/02/06 14:30:42;;;;;;;7.97;4.00;;;;;;;;;;5026230;28;20215;-78
2024/02/06 14:33:10;;;;;;;6.27;3.00;;;;;;;;;;5052105;28;20224;-77
2024/02/06 14:35:41;;;;;;;11.83;3.50;;;;;;;;;;5053065;28;20258;-77
2024/02/06 14:38:09;;;;;;;8.33;4.10;;;;;;;;;;5042093;28;20720;-76
2024/02/06 14:40:38;;;;;;;5.90;3.30;;;;;;;;;;5049792;28;20226;-77
2024/02/06 14:43:04;;;;;;;8.30;3.60;;;;;;;;;;5049427;28;20633;-77
2024/02/06 14:45:34;;;;;;;7.77;3.40;;;;;;;;;;5046719;28;20234;-77
2024/02/06 14:48:07;;;;;;;7.73;3.17;;;;;;;;;;5041183;28;20215;-76
2024/02/06 14:50:33;;;;;;;7.87;4.17;;;;;;;;;;5045153;28;20275;-77
2024/02/06 14:52:58;;;;;;;6.87;3.20;;;;;;;;;;5039268;28;20215;-80
2024/02/06 14:55:26;;;;;;;8.03;3.53;;;;;;;;;;5057588;28;20238;-78
2024/02/06 14:57:51;;;;;;;6.97;3.23;;;;;;;;;;5056146;28;20224;-77
2024/02/06 15:00:17;;;;;;;5.23;3.30;;;;;;;;;;5016823;28;20222;-78
2024/02/06 15:02:50;;;;;;;7.30;3.13;;;;;;;;;;5026124;28;20226;-77
2024/02/06 15:05:20;;;;;;;6.70;3.13;;;;;;;;;;5052917;28;20219;-77
2024/02/06 15:07:47;;;;;;;8.03;3.20;;;;;;;;;;5044383;28;20212;-77
2024/02/06 15:10:14;;;;;;;8.50;3.30;;;;;;;;;;5033587;28;20261;-76
2024/02/06 15:12:42;;;;;;;5.50;2.90;;;;;;;;;;5009955;28;20956;-77
2024/02/06 15:15:12;;;;;;;8.23;3.33;;;;;;;;;;5007440;28;20219;-76
2024/02/06 15:17:38;;;;;;;7.77;3.50;;;;;;;;;;5024574;28;20594;-76
2024/02/06 15:20:05;;;;;;;4.07;2.90;;;;;;;;;;5033068;28;20223;-77
2024/02/06 15:22:31;;;;;;;8.43;3.53;;;;;;;;;;5016558;28;20255;-77
2024/02/06 15:24:56;;;;;;;6.37;2.40;;;;;;;;;;5039108;28;20228;-76
2024/02/06 15:27:22;;;;;;;5.43;2.83;;;;;;;;;;5013705;28;20254;-77
2024/02/06 15:29:50;;;;;;;4.30;2.60;;;;;;;;;;5009309;28;20247;-78
2024/02/06 15:32:15;;;;;;;7.17;2.97;;;;;;;;;;4994770;28;20597;-77
2024/02/06 15:34:46;;;;;;;6.47;2.80;;;;;;;;;;4995189;28;20234;-77
2024/02/06 15:37:14;;;;;;;4.43;2.60;;;;;;;;;;5007810;28;20220;-77
2024/02/06 15:39:52;;;;;;;5.10;2.53;;;;;;;;;;5025550;28;20886;-77
2024/02/06 15:42:21;;;;;;;6.87;2.40;;;;;;;;;;5029988;28;20302;-76
2024/02/06 15:44:49;;;;;;;3.20;2.07;;;;;;;;;;5020399;28;20294;-76
2024/02/06 15:47:16;;;;;;;5.97;2.43;;;;;;;;;;5020220;28;20220;-77
2024/02/06 15:49:48;;;;;;;5.67;2.70;;;;;;;;;;5017548;28;20752;-77
2024/02/06 15:52:15;;;;;;;5.50;2.33;;;;;;;;;;5018452;28;20208;-76
2024/02/06 15:54:41;;;;;;;6.83;2.93;;;;;;;;;;5010134;28;20225;-76
2024/02/06 15:57:07;;;;;;;6.70;3.27;;;;;;;;;;5033681;28;20227;-77
2024/02/06 15:59:39;;;;;;;6.27;2.90;;;;;;;;;;5024597;28;20219;-77
2024/02/06 16:02:08;;;;;;;9.57;2.87;;;;;;;;;;5017064;28;20220;-76
2024/02/06 16:04:38;;;;;;;6.43;3.30;;;;;;;;;;5024837;28;20841;-76
2024/02/06 16:07:04;;;;;;;5.90;2.80;;;;;;;;;;5021569;28;20602;-78
2024/02/06 16:09:29;;;;;;;9.07;3.03;;;;;;;;;;5022031;28;20250;-78
2024/02/06 16:11:57;;;;;;;8.33;3.23;;;;;;;;;;5039968;28;20224;-76
2024/02/06 16:14:23;;;;;;;7.43;3.60;;;;;;;;;;5038848;28;20223;-78
2024/02/06 16:16:51;;;;;;;7.97;3.80;;;;;;;;;;5019859;28;20223;-78
2024/02/06 16:19:17;;;;;;;8.60;4.50;;;;;;;;;;5039507;28;20214;-77
2024/02/06 16:21:43;;;;;;;9.00;4.43;;;;;;;;;;5037524;28;20886;-77
2024/02/06 16:24:13;;;;;;;9.50;4.53;;;;;;;;;;5019919;28;20273;-77
2024/02/06 16:26:39;;;;;;;6.37;4.07;;;;;;;;;;5025777;28;20258;-77
2024/02/06 16:29:08;;;;;;;8.37;4.17;;;;;;;;;;5006706;28;20219;-78
2024/02/06 16:31:39;;;;;;;11.27;5.80;;;;;;;;;;5022923;28;20219;-77
2024/02/06 16:34:05;;;;;;;8.27;4.53;;;;;;;;;;5038458;28;20227;-76
2024/02/06 16:36:35;;;;;;;9.40;5.30;;;;;;;;;;5036666;28;20216;-77
2024/02/06 16:39:05;;;;;;;9.97;4.93;;;;;;;;;;5028119;28;20212;-77
2024/02/06 16:41:37;;;;;;;10.57;4.70;;;;;;;;;;5025043;28;20251;-77
2024/02/06 16:44:02;;;;;;;9.87;5.07;;;;;;;;;;5005696;28;20646;-77
2024/02/06 16:46:28;;;;;;;12.00;5.60;;;;;;;;;;5001504;28;20220;-76
2024/02/06 16:48:56;;;;;;;10.13;5.40;;;;;;;;;;5020552;28;20215;-77
2024/02/06 16:51:25;;;;;;;10.23;5.27;;;;;;;;;;5024945;28;20219;-75
2024/02/06 16:53:51;;;;;;;9.40;5.13;;;;;;;;;;5036087;28;20831;-75
2024/02/06 16:56:17;;;;;;;8.43;5.60;;;;;;;;;;5035076;28;20224;-76
2024/02/06 16:58:44;;;;;;;8.03;5.83;;;;;;;;;;5033347;28;20281;-76
2024/02/06 17:01:13;;;;;;;10.97;6.10;;;;;;;;;;5048496;28;20243;-75
2024/02/06 17:03:39;;;;;;;9.20;6.03;;;;;;;;;;5016155;28;20282;-75
2024/02/06 17:06:05;;;;;;;9.37;6.43;;;;;;;;;;5030574;28;20702;-75
2024/02/06 17:08:33;;;;;;;9.67;6.57;;;;;;;;;;5037465;28;20262;-75
2024/02/06 17:11:03;;;;;;;11.93;5.63;;;;;;;;;;5034256;28;20239;-75
2024/02/06 17:13:29;;;;;;;8.77;6.50;;;;;;;;;;5018578;28;20220;-75
2024/02/06 17:15:57;;;;;;;10.20;5.90;;;;;;;;;;5033015;28;20208;-75
2024/02/06 17:18:27;;;;;;;7.10;5.73;;;;;;;;;;5018044;28;20226;-74
2024/02/06 17:20:55;;;;;;;7.37;5.60;;;;;;;;;;5026480;28;20307;-75
2024/02/06 17:23:21;;;;;;;9.40;7.07;;;;;;;;;;5017451;28;20239;-76
2024/02/06 17:25:49;;;;;;;10.20;6.60;;;;;;;;;;5032232;28;20220;-76
2024/02/06 17:28:18;;;;;;;8.90;6.30;;;;;;;;;;5001773;28;20223;-75
2024/02/06 17:30:45;;;;;;;10.30;5.37;;;;;;;;;;5037164;28;20224;-75
2024/02/06 17:33:13;;;;;;;8.93;5.77;;;;;;;;;;5035455;28;20593;-74
2024/02/06 17:35:44;;;;;;;10.90;6.20;;;;;;;;;;5017634;28;20749;-74
2024/02/06 17:38:14;;;;;;;10.93;5.60;;;;;;;;;;5017223;28;20219;-74
2024/02/06 17:40:43;;;;;;;11.53;6.90;;;;;;;;;;5009122;28;20609;-75
2024/02/06 17:43:11;;;;;;;7.67;6.57;;;;;;;;;;5004257;28;20228;-75
2024/02/06 17:45:44;;;;;;;8.57;6.40;;;;;;;;;;5034665;28;20224;-74
2024/02/06 17:48:10;;;;;;;10.97;6.63;;;;;;;;;;5019047;28;20277;-75
2024/02/06 17:50:36;;;;;;;8.03;5.80;;;;;;;;;;5020845;28;20240;-73
2024/02/06 17:53:01;;;;;;;7.60;5.40;;;;;;;;;;5031702;28;20285;-74
2024/02/06 17:55:29;;;;;;;8.63;6.00;;;;;;;;;;5004363;28;20314;-75
2024/02/06 17:58:02;;;;;;;10.23;6.10;;;;;;;;;;5029108;28;20306;-74
2024/02/06 18:00:27;;;;;;;7.97;5.40;;;;;;;;;;5049555;28;20247;-75
2024/02/06 18:02:55;;;;;;;9.03;5.30;;;;;;;;;;5031047;28;20235;-76
2024/02/06 18:05:21;;;;;;;9.03;5.63;;;;;;;;;;5018918;28;20282;-74
2024/02/06 18:07:49;;;;;;;8.30;5.23;;;;;;;;;;5034128;28;20262;-75
2024/02/06 18:10:17;;;;;;;9.73;5.83;;;;;;;;;;5030526;28;20220;-75
2024/02/06 18:12:43;;;;;;;8.47;5.60;;;;;;;;;;5004830;28;20224;-73
2024/02/06 18:15:10;;;;;;;11.23;6.47;;;;;;;;;;5011436;28;20255;-76
2024/02/06 18:17:37;;;;;;;11.73;6.07;;;;;;;;;;5022686;28;20847;-75
2024/02/06 18:20:04;;;;;;;9.13;5.73;;;;;;;;;;5024543;28;20212;-76
2024/02/06 18:22:35;;;;;;;7.40;5.50;;;;;;;;;;5016628;28;20232;-76
2024/02/06 18:25:04;;;;;;;14.07;6.60;;;;;;;;;;5017485;28;20229;-75
2024/02/06 18:27:32;;;;;;;9.00;6.10;;;;;;;;;;5008860;28;20308;-74
2024/02/06 18:29:58;;;;;;;11.20;6.10;;;;;;;;;;5067684;22;20295;-80
2024/02/06 18:32:25;;;;;;;10.27;5.63;;;;;;;;;;5019647;28;20298;-81
2024/02/06 18:34:50;;;;;;;11.57;6.00;;;;;;;;;;5028250;28;20265;-80
2024/02/06 18:37:16;;;;;;;11.47;6.30;;;;;;;;;;5013268;28;20222;-78
2024/02/06 18:39:41;;;;;;;12.77;5.90;;;;;;;;;;5028718;28;20230;-80
2024/02/06 18:42:07;;;;;;;11.87;6.27;;;;;;;;;;5029802;28;20223;-80
2024/02/06 18:44:35;;;;;;;13.73;6.30;;;;;;;;;;5031195;28;20266;-81
2024/02/06 18:47:00;;;;;;;10.97;6.47;;;;;;;;;;5029539;28;20234;-79
2024/02/06 18:49:29;;;;;;;13.83;5.90;;;;;;;;;;5043651;28;20219;-77
2024/02/06 18:51:54;;;;;;;13.23;6.07;;;;;;;;;;5012322;28;20250;-78
2024/02/06 18:54:20;;;;;;;12.80;6.37;;;;;;;;;;5029096;28;20215;-78
2024/02/06 18:56:45;;;;;;;14.63;6.87;;;;;;;;;;5030670;28;20223;-77
2024/02/06 18:59:11;;;;;;;14.03;6.33;;;;;;;;;;5030832;28;20230;-79
2024/02/06 19:01:37;;;;;;;12.00;5.97;;;;;;;;;;5014523;28;20234;-79
2024/02/06 19:04:05;;;;;;;14.53;6.93;;;;;;;;;;5009357;28;20251;-80
2024/02/06 19:06:35;;;;;;;12.03;5.87;;;;;;;;;;5025872;28;20236;-79
2024/02/06 19:09:00;;;;;;;14.63;6.70;;;;;;;;;;5041297;28;20223;-79
2024/02/06 19:11:26;;;;;;;12.27;6.10;;;;;;;;;;5013011;28;20585;-78
2024/02/06 19:13:56;;;;;;;16.20;6.50;;;;;;;;;;5024248;28;20215;-79
2024/02/06 19:16:24;;;;;;;11.70;5.80;;;;;;;;;;5026398;28;20306;-78
2024/02/06 19:18:49;;;;;;;15.97;6.60;;;;;;;;;;5046889;28;20245;-79
2024/02/06 19:21:16;;;;;;;13.63;7.00;;;;;;;;;;5049652;28;20223;-77
2024/02/06 19:23:41;;;;;;;16.90;7.13;;;;;;;;;;5029130;28;20270;-77
2024/02/06 19:26:07;;;;;;;13.93;7.07;;;;;;;;;;5010223;28;20223;-78
2024/02/06 19:28:32;;;;;;;13.47;6.00;;;;;;;;;;5027404;28;20223;-78
2024/02/06 19:31:00;;;;;;;10.20;6.20;;;;;;;;;;5009237;28;20577;-79
2024/02/06 19:33:26;;;;;;;13.40;6.80;;;;;;;;;;5014244;28;20227;-78
2024/02/06 19:35:51;;;;;;;15.47;7.40;;;;;;;;;;5011407;28;20227;-78
2024/02/06 19:38:20;;;;;;;12.60;7.40;;;;;;;;;;5030147;28;20219;-79
2024/02/06 19:40:45;;;;;;;14.10;6.80;;;;;;;;;;5016449;28;20227;-78
2024/02/06 19:43:11;;;;;;;13.27;6.80;;;;;;;;;;5041183;28;20220;-79
2024/02/06 19:45:42;;;;;;;12.43;7.17;;;;;;;;;;5014943;28;20307;-78
2024/02/06 19:48:08;;;;;;;13.33;7.97;;;;;;;;;;5017281;28;20215;-77
2024/02/06 19:50:37;;;;;;;14.83;8.60;;;;;;;;;;5028330;28;20270;-78
2024/02/06 19:53:05;;;;;;;14.83;7.77;;;;;;;;;;5043608;28;20216;-78
2024/02/06 19:55:31;;;;;;;13.23;7.80;;;;;;;;;;5034038;28;20228;-79
2024/02/06 19:57:59;;;;;;;13.80;8.40;;;;;;;;;;5048473;28;20311;-78
2024/02/06 20:00:30;;;;;;;12.47;8.20;;;;;;;;;;5014880;28;20803;-79
2024/02/06 20:02:58;;;;;;;11.10;7.20;;;;;;;;;;5051194;28;20231;-80
2024/02/06 20:05:26;;;;;;;9.33;7.50;;;;;;;;;;5014316;28;20223;-79
2024/02/06 20:07:54;;;;;;;11.33;7.57;;;;;;;;;;5031652;28;20231;-78
2024/02/06 20:10:19;;;;;;;13.67;7.43;;;;;;;;;;5014553;28;20279;-79
2024/02/06 20:12:47;;;;;;;11.33;7.53;;;;;;;;;;5017309;28;20911;-78
2024/02/06 20:15:13;;;;;;;12.47;7.93;;;;;;;;;;5005590;28;20226;-79
2024/02/06 20:17:38;;;;;;;11.73;7.47;;;;;;;;;;5041307;28;20605;-79
2024/02/06 20:20:07;;;;;;;10.97;6.97;;;;;;;;;;5044314;28;20227;-79
2024/02/06 20:22:32;;;;;;;15.43;8.37;;;;;;;;;;5024245;28;20236;-79
2024/02/06 20:25:00;;;;;;;11.17;8.23;;;;;;;;;;5017382;28;20631;-80
2024/02/06 20:27:26;;;;;;;16.27;9.30;;;;;;;;;;5018735;28;20246;-77
2024/02/06 20:29:51;;;;;;;13.73;8.13;;;;;;;;;;5021906;28;20231;-77
2024/02/06 20:32:20;;;;;;;15.33;8.67;;;;;;;;;;5001931;28;20219;-78
2024/02/06 20:34:46;;;;;;;14.73;8.17;;;;;;;;;;4992993;28;20255;-79
2024/02/06 20:37:11;;;;;;;17.03;9.00;;;;;;;;;;4999951;28;20224;-78
2024/02/06 20:39:37;;;;;;;16.03;9.43;;;;;;;;;;4992808;28;20318;-77
2024/02/06 20:42:03;;;;;;;11.47;8.43;;;;;;;;;;5022227;28;20682;-78
2024/02/06 20:44:29;;;;;;;12.00;8.77;;;;;;;;;;5003429;28;20220;-78
2024/02/06 20:46:57;;;;;;;14.83;9.70;;;;;;;;;;5027747;28;20647;-80
2024/02/06 20:49:27;;;;;;;15.40;9.20;;;;;;;;;;5040464;28;20223;-78
2024/02/06 20:51:56;;;;;;;14.97;9.13;;;;;;;;;;5029953;28;20306;-77
2024/02/06 20:54:22;;;;;;;16.77;9.67;;;;;;;;;;5023699;28;20877;-76
2024/02/06 20:56:47;;;;;;;15.90;10.30;;;;;;;;;;5024293;28;20219;-77
2024/02/06 20:59:13;;;;;;;11.33;8.93;;;;;;;;;;5008177;28;20219;-77
2024/02/06 21:01:38;;;;;;;13.73;8.57;;;;;;;;;;5038515;28;20220;-79
2024/02/06 21:04:08;;;;;;;15.00;9.10;;;;;;;;;;5011522;28;20219;-78
2024/02/06 21:06:33;;;;;;;15.43;10.40;;;;;;;;;;5038584;28;20243;-78
2024/02/06 21:09:00;;;;;;;17.27;9.73;;;;;;;;;;5037622;28;20572;-77
2024/02/06 21:11:27;;;;;;;14.97;9.77;;;;;;;;;;5020455;28;20224;-79
2024/02/06 21:13:55;;;;;;;12.37;9.20;;;;;;;;;;5046553;28;20898;-78
2024/02/06 21:16:21;;;;;;;18.93;10.23;;;;;;;;;;5014717;28;20230;-77
2024/02/06 21:18:49;;;;;;;16.13;9.23;;;;;;;;;;5036021;28;20216;-81
2024/02/06 21:21:17;;;;;;;16.97;10.03;;;;;;;;;;5035727;28;20689;-84
2024/02/06 21:23:42;;;;;;;16.70;9.87;;;;;;;;;;5019384;28;20230;-82
2024/02/06 21:26:10;;;;;;;15.30;9.07;;;;;;;;;;5030979;28;20907;-83
2024/02/06 21:28:36;;;;;;;17.30;9.17;;;;;;;;;;5012945;28;20311;-83
2024/02/06 21:31:06;;;;;;;14.17;8.83;;;;;;;;;;5044346;28;20211;-81
2024/02/06 21:33:33;;;;;;;14.67;9.50;;;;;;;;;;5044559;28;20227;-82
2024/02/06 21:35:59;;;;;;;15.30;9.23;;;;;;;;;;5030554;28;20297;-82
2024/02/06 21:38:27;;;;;;;13.77;8.83;;;;;;;;;;5013724;28;20220;-81
2024/02/06 21:40:52;;;;;;;13.63;8.83;;;;;;;;;;5031411;28;20281;-80
2024/02/06 21:43:18;;;;;;;13.43;8.87;;;;;;;;;;4999773;28;20232;-81
2024/02/06 21:45:43;;;;;;;11.67;4.50;;;;;;;;;;5018656;28;20223;-82
2024/02/06 21:48:09;;;;;;;1.37;1.27;;;;;;;;;;5031728;28;20227;-84
2024/02/06 21:50:35;;;;;;;5.30;0.90;;;;;;;;;;5046900;28;20215;-85
2024/02/06 21:53:00;;;;;;;2.53;0.80;;;;;;;;;;5024170;28;20377;-82
2024/02/06 21:55:27;;;;;;;0.70;0.70;;;;;;;;;;5015865;28;20216;-85
2024/02/06 21:57:53;;;;;;;0.90;0.90;;;;;;;;;;5013426;28;20263;-79
2024/02/06 22:00:18;;;;;;;0.90;0.90;;;;;;;;;;5011207;28;20673;-83
2024/02/06 22:02:45;;;;;;;3.03;1.10;;;;;;;;;;5029614;28;20310;-84
2024/02/06 22:05:12;;;;;;;1.40;1.30;;;;;;;;;;5040841;28;20321;-79
2024/02/06 22:07:37;;;;;;;1.33;1.10;;;;;;;;;;5036301;28;20223;-80
2024/02/06 22:10:03;;;;;;;1.10;1.00;;;;;;;;;;5034376;28;20226;-77
2024/02/06 22:12:31;;;;;;;1.00;1.00;;;;;;;;;;5000625;28;20219;-81
2024/02/06 22:14:59;;;;;;;1.50;1.20;;;;;;;;;;5024420;28;20239;-85
2024/02/06 22:17:27;;;;;;;1.10;0.90;;;;;;;;;;5038372;28;20222;-83
2024/02/06 22:19:55;;;;;;;1.20;1.10;;;;;;;;;;5038121;28;20217;-82
2024/02/06 22:22:20;;;;;;;2.17;1.17;;;;;;;;;;5050904;28;20227;-82
2024/02/06 22:24:51;;;;;;;1.20;0.97;;;;;;;;;;5030598;28;20277;-83
2024/02/06 22:27:19;;;;;;;1.10;1.00;;;;;;;;;;5035792;28;20298;-83
2024/02/06 22:29:51;;;;;;;2.17;1.00;;;;;;;;;;5025106;28;20792;-81
2024/02/06 22:32:16;;;;;;;1.77;0.90;;;;;;;;;;5015252;28;20203;-84
2024/02/06 22:34:42;;;;;;;2.03;0.80;;;;;;;;;;5022209;28;20710;-80
2024/02/06 22:37:07;;;;;;;1.50;0.80;;;;;;;;;;5021642;28;20274;-80
2024/02/06 22:39:35;;;;;;;1.83;0.90;;;;;;;;;;5041871;28;20207;-84
2024/02/06 22:42:01;;;;;;;1.43;0.80;;;;;;;;;;5024151;28;20230;-86
2024/02/06 22:44:27;;;;;;;1.63;0.80;;;;;;;;;;5017484;28;20215;-83
2024/02/06 22:46:55;;;;;;;2.10;1.10;;;;;;;;;;5036019;28;20220;-82
2024/02/06 22:49:20;;;;;;;1.90;0.70;;;;;;;;;;5012753;28;20212;-82
2024/02/06 22:51:48;;;;;;;3.57;0.90;;;;;;;;;;5019769;28;20228;-82
2024/02/06 22:54:14;;;;;;;2.30;0.80;;;;;;;;;;5015353;28;20677;-82
2024/02/06 22:56:40;;;;;;;1.87;0.77;;;;;;;;;;5023002;28;20223;-83
2024/02/06 22:59:06;;;;;;;3.43;1.00;;;;;;;;;;5020997;28;20281;-82
2024/02/06 23:01:33;;;;;;;1.73;0.60;;;;;;;;;;5033124;28;20245;-82
2024/02/06 23:04:00;;;;;;;2.90;0.77;;;;;;;;;;5015496;28;20255;-82
2024/02/06 23:06:25;;;;;;;1.97;0.53;;;;;;;;;;5014048;28;20228;-80
2024/02/06 23:08:52;;;;;;;3.17;0.60;;;;;;;;;;5022186;28;20711;-81
2024/02/06 23:11:17;;;;;;;4.00;1.00;;;;;;;;;;5032064;28;20708;-82
2024/02/06 23:13:43;;;;;;;4.20;0.80;;;;;;;;;;5042792;28;20254;-79
2024/02/06 23:16:11;;;;;;;2.53;0.73;;;;;;;;;;5023399;28;20227;-83
2024/02/06 23:18:37;;;;;;;4.13;0.80;;;;;;;;;;5035947;28;20215;-84
2024/02/06 23:21:03;;;;;;;3.73;0.60;;;;;;;;;;5034918;28;20250;-82
2024/02/06 23:23:29;;;;;;;5.10;1.00;;;;;;;;;;5016844;28;20744;-81
2024/02/06 23:25:57;;;;;;;3.03;0.80;;;;;;;;;;5039596;28;20243;-82
2024/02/06 23:28:23;;;;;;;3.63;0.70;;;;;;;;;;5031601;28;20216;-81
2024/02/06 23:30:48;;;;;;;3.60;0.90;;;;;;;;;;5047694;28;20322;-82
2024/02/06 23:33:14;;;;;;;4.93;0.97;;;;;;;;;;5015933;28;20223;-82
2024/02/06 23:35:39;;;;;;;5.07;0.80;;;;;;;;;;5017054;28;20227;-83
2024/02/06 23:38:06;;;;;;;2.63;0.70;;;;;;;;;;5031328;28;20684;-83
2024/02/06 23:40:31;;;;;;;3.37;0.80;;;;;;;;;;5021035;28;20880;-82
2024/02/06 23:43:02;;;;;;;2.77;0.73;;;;;;;;;;5005141;28;20236;-84
2024/02/06 23:45:27;;;;;;;5.27;0.90;;;;;;;;;;5026248;28;20244;-83
2024/02/06 23:47:55;;;;;;;4.80;0.80;;;;;;;;;;5033368;28;20211;-85
2024/02/06 23:50:23;;;;;;;3.53;0.90;;;;;;;;;;5039209;28;20227;-82
2024/02/06 23:52:51;;;;;;;6.73;0.90;;;;;;;;;;5046979;28;20219;-82
2024/02/06 23:55:19;;;;;;;2.00;0.87;;;;;;;;;;5015907;28;20214;-82
2024/02/06 23:57:44;;;;;;;2.93;0.70;;;;;;;;;;5022627;28;20238;-82
